Time;durP1;ratioP1;P1;durP2;ratioP2;P2;SDS_P1;SDS_P2;PMS_P1;PMS_P2;Temp;Humidity;BMP_temperature;BMP_pressure;BME280_temperature;BME280_humidity;BME280_pressure;Samples;Min_cycle;Max_cycle;Signal;HPM_P1;HPM_P2
2022/08/09 00:00:11;;;;;;;11.38;7.28;;;23.20;99.90;;;;;;5013521;28;20042;-79
2022/08/09 00:02:37;;;;;;;13.02;6.88;;;23.20;99.90;;;;;;5014656;28;20100;-79
2022/08/09 00:05:04;;;;;;;11.13;6.75;;;23.10;99.90;;;;;;5001110;28;20018;-79
2022/08/09 00:07:30;;;;;;;11.45;6.90;;;23.00;99.90;;;;;;5014986;28;20053;-77
2022/08/09 00:09:56;;;;;;;11.75;6.95;;;22.90;99.90;;;;;;5015405;28;20573;-78
2022/08/09 00:12:22;;;;;;;13.77;7.25;;;22.80;99.90;;;;;;5015882;28;20562;-79
2022/08/09 00:14:48;;;;;;;12.52;6.68;;;22.70;99.90;;;;;;5000743;28;20089;-78
2022/08/09 00:17:14;;;;;;;10.40;7.53;;;22.60;99.90;;;;;;5015257;28;20057;-78
2022/08/09 00:19:40;;;;;;;10.93;6.63;;;22.70;99.90;;;;;;5009939;28;20189;-77
2022/08/09 00:22:06;;;;;;;11.10;7.30;;;22.40;99.90;;;;;;5008962;28;20030;-78
2022/08/09 00:24:32;;;;;;;11.18;7.28;;;22.40;99.90;;;;;;5008787;28;20109;-78
2022/08/09 00:26:59;;;;;;;10.05;7.32;;;22.20;99.90;;;;;;5013741;28;20017;-78
2022/08/09 00:29:26;;;;;;;14.70;7.88;;;22.10;99.90;;;;;;5027496;28;20041;-80
2022/08/09 00:31:52;;;;;;;14.38;7.88;;;22.10;99.90;;;;;;5012350;28;20172;-79
2022/08/09 00:34:18;;;;;;;13.38;7.80;;;21.90;99.90;;;;;;5009392;28;20110;-79
2022/08/09 00:36:44;;;;;;;13.68;8.45;;;22.00;99.90;;;;;;5013516;28;20036;-79
2022/08/09 00:39:10;;;;;;;12.85;8.20;;;21.90;99.90;;;;;;5014010;28;20089;-77
2022/08/09 00:41:37;;;;;;;16.40;8.68;;;21.70;99.90;;;;;;5015146;28;20037;-73
2022/08/09 00:44:03;;;;;;;13.68;8.88;;;21.70;99.90;;;;;;5014660;28;20073;-77
2022/08/09 00:46:29;;;;;;;14.65;8.88;;;21.60;99.90;;;;;;5015815;28;20034;-68
2022/08/09 00:48:55;;;;;;;14.88;9.43;;;21.60;99.90;;;;;;5014809;28;20022;-76
2022/08/09 00:51:21;;;;;;;13.23;8.57;;;21.60;99.90;;;;;;5014792;28;20026;-77
2022/08/09 00:53:47;;;;;;;14.35;9.45;;;21.50;99.90;;;;;;5016587;28;20105;-78
2022/08/09 00:56:14;;;;;;;16.95;10.10;;;21.50;99.90;;;;;;5016422;28;20444;-75
2022/08/09 00:58:41;;;;;;;15.18;8.95;;;21.50;99.90;;;;;;5009056;28;20080;-77
2022/08/09 01:01:19;;;;;;;15.20;9.55;;;21.40;99.90;;;;;;5014110;28;20026;-76
2022/08/09 01:03:57;;;;;;;16.40;9.90;;;21.30;99.90;;;;;;5018904;28;20026;-74
2022/08/09 01:06:26;;;;;;;15.18;9.45;;;21.30;99.90;;;;;;5011065;28;20419;-77
2022/08/09 01:09:13;;;;;;;14.82;9.02;;;21.20;99.90;;;;;;5007933;28;20024;-77
2022/08/09 01:11:44;;;;;;;15.95;9.43;;;21.10;99.90;;;;;;5007906;28;20069;-76
2022/08/09 01:14:31;;;;;;;16.85;10.73;;;21.10;99.90;;;;;;5007702;28;20025;-77
2022/08/09 01:17:07;;;;;;;15.40;10.38;;;21.00;99.90;;;;;;5011460;28;20613;-75
2022/08/09 01:19:42;;;;;;;17.23;10.10;;;20.90;99.90;;;;;;5011363;28;20029;-77
2022/08/09 01:22:31;;;;;;;15.52;10.18;;;20.90;99.90;;;;;;5011789;28;20026;-78
2022/08/09 01:25:17;;;;;;;15.13;9.98;;;20.80;99.90;;;;;;5028584;28;20041;-77
2022/08/09 01:27:48;;;;;;;18.13;10.50;;;20.90;99.90;;;;;;5011930;28;20033;-78
2022/08/09 01:30:15;;;;;;;17.02;9.98;;;20.80;99.90;;;;;;5028749;28;20033;-78
2022/08/09 01:32:46;;;;;;;16.80;10.45;;;20.80;99.90;;;;;;5028156;28;20025;-78
2022/08/09 01:35:39;;;;;;;15.38;9.95;;;20.80;99.90;;;;;;5028310;28;20865;-76
2022/08/09 01:38:10;;;;;;;13.85;8.95;;;20.80;99.90;;;;;;4950270;29;20066;-76
2022/08/09 01:40:42;;;;;;;17.13;10.32;;;20.80;99.90;;;;;;4950362;29;20160;-76
2022/08/09 01:43:10;;;;;;;15.35;10.55;;;20.70;99.90;;;;;;4950029;29;20046;-75
2022/08/09 01:45:36;;;;;;;17.10;9.98;;;20.70;99.90;;;;;;4950014;28;20063;-76
2022/08/09 01:48:04;;;;;;;15.52;10.40;;;20.70;99.90;;;;;;4950236;28;20111;-76
2022/08/09 01:50:31;;;;;;;24.65;11.38;;;20.70;99.90;;;;;;4950310;28;20034;-78
2022/08/09 01:52:58;;;;;;;23.10;10.75;;;20.70;99.90;;;;;;4950125;29;20477;-77
2022/08/09 01:55:25;;;;;;;18.42;11.02;;;20.70;99.90;;;;;;4949999;29;20027;-77
2022/08/09 01:57:54;;;;;;;18.13;10.75;;;20.70;99.90;;;;;;4950186;28;20136;-77
2022/08/09 02:00:20;;;;;;;22.77;11.23;;;20.70;99.90;;;;;;4946291;29;20490;-77
2022/08/09 02:02:49;;;;;;;16.98;11.13;;;20.70;99.90;;;;;;4949480;29;20595;-77
2022/08/09 02:05:20;;;;;;;16.60;10.85;;;20.70;99.90;;;;;;4949534;29;20031;-77
2022/08/09 02:08:08;;;;;;;16.02;10.07;;;20.70;99.90;;;;;;4952187;28;20405;-74
2022/08/09 02:10:41;;;;;;;17.05;10.80;;;20.70;99.90;;;;;;4949945;29;20031;-77
2022/08/09 02:13:08;;;;;;;;;;;20.80;99.90;;;;;;4950092;28;20063;-76
2022/08/09 02:15:37;;;;;;;15.32;10.52;;;20.80;99.90;;;;;;4992956;28;19921;-76
2022/08/09 02:18:05;;;;;;;16.02;10.45;;;20.70;99.90;;;;;;5010484;28;20065;-70
2022/08/09 02:20:37;;;;;;;16.13;11.15;;;20.70;99.90;;;;;;5010563;28;20025;-77
2022/08/09 02:23:27;;;;;;;16.23;10.63;;;20.60;99.90;;;;;;5010037;28;20048;-77
2022/08/09 02:25:56;;;;;;;19.48;11.45;;;20.70;99.90;;;;;;5010896;28;20076;-78
2022/08/09 02:28:34;;;;;;;17.55;9.65;;;20.70;99.90;;;;;;5010248;28;20088;-70
2022/08/09 02:31:10;;;;;;;16.55;11.00;;;20.80;99.90;;;;;;5007483;28;20037;-77
2022/08/09 02:33:40;;;;;;;14.45;9.32;;;20.70;99.90;;;;;;5010152;28;20029;-76
2022/08/09 02:36:14;;;;;;;15.82;9.88;;;20.60;99.90;;;;;;5010439;28;20403;-76
2022/08/09 02:38:48;;;;;;;17.23;10.18;;;20.60;99.90;;;;;;5025677;28;20033;-77
2022/08/09 02:41:18;;;;;;;16.15;9.27;;;20.60;99.90;;;;;;5010557;28;20026;-77
2022/08/09 02:43:46;;;;;;;16.33;9.75;;;20.50;99.90;;;;;;5005827;28;20030;-78
2022/08/09 02:46:14;;;;;;;17.30;10.60;;;20.50;99.90;;;;;;5009882;28;20034;-77
2022/08/09 02:48:41;;;;;;;20.02;10.38;;;20.40;99.90;;;;;;5009582;28;20053;-77
2022/08/09 02:51:10;;;;;;;16.65;10.35;;;20.30;99.90;;;;;;5010016;28;20026;-77
2022/08/09 02:53:43;;;;;;;14.90;9.95;;;20.40;99.90;;;;;;5006384;28;20105;-76
2022/08/09 02:56:10;;;;;;;16.52;10.30;;;20.40;99.90;;;;;;5009790;28;20073;-78
2022/08/09 02:58:36;;;;;;;16.90;9.85;;;20.20;99.90;;;;;;5009723;28;20080;-76
2022/08/09 03:01:06;;;;;;;18.92;11.50;;;20.20;99.90;;;;;;5010297;28;20469;-76
2022/08/09 03:03:34;;;;;;;17.05;11.18;;;20.20;99.90;;;;;;5010294;28;20025;-76
2022/08/09 03:06:02;;;;;;;15.75;10.27;;;20.10;99.90;;;;;;5010113;28;20022;-77
2022/08/09 03:08:29;;;;;;;14.93;9.73;;;20.10;99.90;;;;;;5011238;28;20026;-77
2022/08/09 03:10:57;;;;;;;13.27;9.38;;;20.00;99.90;;;;;;5009721;28;20079;-76
2022/08/09 03:13:24;;;;;;;14.90;9.38;;;20.00;99.90;;;;;;5009648;28;20021;-76
2022/08/09 03:15:51;;;;;;;16.08;9.90;;;19.90;99.90;;;;;;5009642;28;20034;-76
2022/08/09 03:18:17;;;;;;;15.93;9.38;;;19.80;99.90;;;;;;5009874;28;20668;-75
2022/08/09 03:20:44;;;;;;;13.63;8.80;;;19.90;99.90;;;;;;5009425;28;20061;-75
2022/08/09 03:23:11;;;;;;;16.10;8.75;;;19.80;99.90;;;;;;5009482;28;20036;-73
2022/08/09 03:25:39;;;;;;;14.75;8.07;;;19.80;99.90;;;;;;5009585;28;20040;-75
2022/08/09 03:28:06;;;;;;;13.15;8.57;;;19.60;99.90;;;;;;5009026;28;20033;-76
2022/08/09 03:30:32;;;;;;;14.50;8.65;;;19.70;99.90;;;;;;5009303;28;20016;-75
2022/08/09 03:33:01;;;;;;;14.45;8.77;;;19.60;99.90;;;;;;5009404;28;20029;-75
2022/08/09 03:35:27;;;;;;;13.23;9.68;;;19.60;99.90;;;;;;5008758;28;20380;-75
2022/08/09 03:37:53;;;;;;;12.10;8.32;;;19.60;99.90;;;;;;5013129;28;20032;-76
2022/08/09 03:40:20;;;;;;;17.08;10.00;;;19.60;99.90;;;;;;5013414;28;20041;-76
2022/08/09 03:42:45;;;;;;;15.45;9.13;;;19.60;99.90;;;;;;5013035;28;20041;-74
2022/08/09 03:45:11;;;;;;;13.05;9.18;;;19.60;99.90;;;;;;5006706;28;20050;-76
2022/08/09 03:47:37;;;;;;;11.93;8.27;;;19.60;99.90;;;;;;5014571;28;20026;-76
2022/08/09 03:50:08;;;;;;;12.27;8.50;;;19.60;99.90;;;;;;5003934;28;20467;-74
2022/08/09 03:52:35;;;;;;;11.90;8.25;;;19.60;99.90;;;;;;4999171;28;20026;-76
2022/08/09 03:55:04;;;;;;;13.07;8.85;;;19.50;99.90;;;;;;4998506;28;20026;-77
2022/08/09 03:57:30;;;;;;;13.77;8.18;;;19.40;99.90;;;;;;5014147;28;20080;-76
2022/08/09 03:59:56;;;;;;;14.73;8.52;;;19.50;99.90;;;;;;5012666;28;20681;-76
2022/08/09 04:02:25;;;;;;;16.02;9.13;;;19.50;99.90;;;;;;5007076;28;20029;-77
2022/08/09 04:04:51;;;;;;;15.10;8.90;;;19.50;99.90;;;;;;5011022;28;20053;-76
2022/08/09 04:07:17;;;;;;;15.05;9.48;;;19.60;99.90;;;;;;5014259;28;20022;-75
2022/08/09 04:09:42;;;;;;;12.80;8.73;;;19.50;99.90;;;;;;5013545;28;20026;-75
2022/08/09 04:12:08;;;;;;;13.05;8.95;;;19.50;99.90;;;;;;5013121;28;20378;-76
2022/08/09 04:14:35;;;;;;;12.48;8.07;;;19.60;99.90;;;;;;5014581;28;20033;-77
2022/08/09 04:17:01;;;;;;;12.18;8.00;;;19.60;99.90;;;;;;5014710;28;20073;-74
2022/08/09 04:19:27;;;;;;;17.30;9.15;;;19.60;99.90;;;;;;5001669;28;20672;-76
2022/08/09 04:21:53;;;;;;;14.15;8.15;;;19.50;99.90;;;;;;5007333;28;20036;-76
2022/08/09 04:24:19;;;;;;;10.63;7.10;;;19.60;99.90;;;;;;5010208;28;20029;-75
2022/08/09 04:26:44;;;;;;;11.70;7.57;;;19.80;99.90;;;;;;5015320;28;20030;-76
2022/08/09 04:29:10;;;;;;;12.57;7.78;;;19.70;99.90;;;;;;5013147;28;20109;-75
2022/08/09 04:31:36;;;;;;;13.10;7.43;;;19.80;99.90;;;;;;5015170;28;20546;-75
2022/08/09 04:34:02;;;;;;;13.02;7.63;;;19.80;99.90;;;;;;5014895;28;20103;-73
2022/08/09 04:36:31;;;;;;;10.88;7.30;;;19.80;99.90;;;;;;5023606;28;20077;-77
2022/08/09 04:39:03;;;;;;;16.83;8.07;;;19.80;99.90;;;;;;5019901;28;20025;-77
2022/08/09 04:41:29;;;;;;;11.07;7.15;;;19.80;99.90;;;;;;5024239;28;20080;-76
2022/08/09 04:43:55;;;;;;;10.32;7.13;;;19.90;99.90;;;;;;5015237;28;20519;-77
2022/08/09 04:46:21;;;;;;;11.88;7.20;;;19.80;99.90;;;;;;5015081;28;20038;-77
2022/08/09 04:48:47;;;;;;;12.07;7.20;;;19.90;99.90;;;;;;5014700;28;20037;-78
2022/08/09 04:51:13;;;;;;;13.70;7.13;;;19.90;99.90;;;;;;5014428;28;20040;-74
2022/08/09 04:53:39;;;;;;;11.40;6.68;;;20.20;99.90;;;;;;5014133;28;20022;-72
2022/08/09 04:56:06;;;;;;;11.20;6.05;;;20.30;99.90;;;;;;5014686;28;20038;-77
2022/08/09 04:58:32;;;;;;;10.43;6.10;;;20.90;99.90;;;;;;5015455;28;20025;-78
2022/08/09 05:00:59;;;;;;;10.20;5.60;;;21.50;99.90;;;;;;5014713;28;20029;-78
2022/08/09 05:03:25;;;;;;;11.32;6.03;;;21.90;99.90;;;;;;5011638;28;20032;-77
2022/08/09 05:05:51;;;;;;;8.48;5.40;;;21.90;99.90;;;;;;5019362;28;20021;-74
2022/08/09 05:08:17;;;;;;;12.85;5.55;;;21.70;99.90;;;;;;5015964;28;20026;-78
2022/08/09 05:10:44;;;;;;;9.10;6.25;;;21.60;99.90;;;;;;5023679;28;20034;-77
2022/08/09 05:13:10;;;;;;;8.70;5.45;;;21.50;99.90;;;;;;5014646;28;20050;-78
2022/08/09 05:15:36;;;;;;;9.98;5.82;;;21.50;99.90;;;;;;5014148;28;20105;-78
2022/08/09 05:18:02;;;;;;;10.20;5.97;;;21.40;99.90;;;;;;5014659;28;20036;-78
2022/08/09 05:20:28;;;;;;;9.70;5.75;;;21.30;99.90;;;;;;5014478;28;20026;-78
2022/08/09 05:22:54;;;;;;;9.77;5.78;;;21.40;99.90;;;;;;5014868;28;20073;-77
2022/08/09 05:25:22;;;;;;;9.05;5.63;;;21.40;99.90;;;;;;5005910;28;20053;-76
2022/08/09 05:27:51;;;;;;;10.00;6.03;;;21.20;99.90;;;;;;4997433;28;20029;-79
2022/08/09 05:30:17;;;;;;;9.15;5.63;;;21.20;99.90;;;;;;5001701;28;20534;-78
2022/08/09 05:32:44;;;;;;;10.45;6.93;;;21.40;99.90;;;;;;4998756;28;20369;-78
2022/08/09 05:35:10;;;;;;;9.70;6.15;;;21.40;99.90;;;;;;5014055;28;20546;-79
2022/08/09 05:37:36;;;;;;;10.20;5.75;;;21.60;99.90;;;;;;5001239;28;20117;-78
2022/08/09 05:40:04;;;;;;;8.02;5.50;;;21.70;99.90;;;;;;5012040;28;20519;-77
2022/08/09 05:42:29;;;;;;;8.00;5.47;;;21.80;99.90;;;;;;5004053;28;20032;-78
2022/08/09 05:44:55;;;;;;;9.57;5.82;;;21.80;99.90;;;;;;5008687;28;20121;-77
2022/08/09 05:47:24;;;;;;;11.38;6.28;;;21.70;99.90;;;;;;5007686;28;20041;-78
2022/08/09 05:49:51;;;;;;;8.70;6.00;;;21.80;99.90;;;;;;5008165;28;20026;-75
2022/08/09 05:52:17;;;;;;;10.48;6.45;;;21.90;99.90;;;;;;5023388;28;20084;-75
2022/08/09 05:54:43;;;;;;;10.80;6.20;;;22.20;99.90;;;;;;5010098;28;20026;-76
2022/08/09 05:57:08;;;;;;;11.38;6.10;;;22.20;99.90;;;;;;5010759;28;20516;-75
2022/08/09 05:59:34;;;;;;;10.75;6.30;;;22.30;99.90;;;;;;5002874;28;20427;-75
2022/08/09 06:02:00;;;;;;;9.48;5.18;;;22.60;99.90;;;;;;5007961;28;20038;-74
2022/08/09 06:04:26;;;;;;;8.15;5.70;;;22.50;99.90;;;;;;4996775;28;20030;-75
2022/08/09 06:06:52;;;;;;;11.93;6.07;;;22.20;99.90;;;;;;5006404;28;20076;-75
2022/08/09 06:09:19;;;;;;;9.48;5.85;;;22.30;99.90;;;;;;5009718;28;20391;-74
2022/08/09 06:11:45;;;;;;;9.55;6.00;;;22.50;99.90;;;;;;5012421;28;20155;-73
2022/08/09 06:14:11;;;;;;;9.75;5.70;;;22.70;99.90;;;;;;5007280;28;20485;-75
2022/08/09 06:16:37;;;;;;;12.13;6.65;;;22.70;99.90;;;;;;5008590;28;20049;-74
2022/08/09 06:19:03;;;;;;;11.63;6.07;;;22.60;99.90;;;;;;5007934;28;20022;-76
2022/08/09 06:21:29;;;;;;;8.18;5.43;;;22.60;99.90;;;;;;5007746;28;20104;-74
2022/08/09 06:23:55;;;;;;;12.73;6.75;;;22.60;99.90;;;;;;5006355;28;20159;-76
2022/08/09 06:26:22;;;;;;;13.95;6.50;;;22.80;99.90;;;;;;5012411;28;20496;-76
2022/08/09 06:28:52;;;;;;;9.98;6.15;;;22.80;99.90;;;;;;5007657;28;20022;-75
2022/08/09 06:31:18;;;;;;;15.30;6.30;;;22.90;99.90;;;;;;5012499;28;20044;-76
2022/08/09 06:33:44;;;;;;;13.07;5.97;;;22.80;99.90;;;;;;5008025;28;20022;-76
2022/08/09 06:36:10;;;;;;;11.65;7.22;;;22.90;99.90;;;;;;4997725;28;20188;-75
2022/08/09 06:38:37;;;;;;;10.77;5.97;;;22.90;99.90;;;;;;5005321;28;20028;-73
2022/08/09 06:41:03;;;;;;;15.70;6.78;;;23.10;99.90;;;;;;5010457;28;20070;-78
2022/08/09 06:43:30;;;;;;;10.93;6.32;;;23.00;99.90;;;;;;5004053;28;20029;-77
2022/08/09 06:45:56;;;;;;;7.38;5.40;;;22.90;99.90;;;;;;5007573;28;20040;-78
2022/08/09 06:48:22;;;;;;;10.50;6.95;;;23.10;99.90;;;;;;5012712;28;20029;-78
2022/08/09 06:50:47;;;;;;;10.65;7.30;;;23.20;99.90;;;;;;5003544;28;20080;-78
2022/08/09 06:53:13;;;;;;;10.00;6.18;;;23.10;99.90;;;;;;5005374;28;20794;-78
2022/08/09 06:55:39;;;;;;;9.15;5.90;;;23.10;99.90;;;;;;5008123;28;20540;-78
2022/08/09 06:58:05;;;;;;;9.68;6.88;;;23.20;99.90;;;;;;5008651;28;20025;-78
2022/08/09 07:00:32;;;;;;;11.45;6.82;;;23.60;99.90;;;;;;5009424;28;20464;-78
2022/08/09 07:02:58;;;;;;;9.68;6.13;;;23.70;99.90;;;;;;5011357;28;20037;-78
2022/08/09 07:05:24;;;;;;;12.32;6.57;;;23.80;99.90;;;;;;5003942;28;20471;-79
2022/08/09 07:07:50;;;;;;;11.30;5.97;;;23.70;99.90;;;;;;5010928;28;20370;-77
2022/08/09 07:10:16;;;;;;;9.88;6.50;;;23.50;99.90;;;;;;5010447;28;20025;-78
2022/08/09 07:12:42;;;;;;;10.35;6.22;;;23.70;99.90;;;;;;5010015;28;20061;-77
2022/08/09 07:15:09;;;;;;;11.23;6.40;;;23.20;99.90;;;;;;5009940;28;20056;-76
2022/08/09 07:17:34;;;;;;;9.27;6.35;;;23.00;99.90;;;;;;5009034;28;21222;-78
2022/08/09 07:20:00;;;;;;;15.07;6.78;;;23.00;99.90;;;;;;5004661;28;20551;-78
2022/08/09 07:22:26;;;;;;;11.15;6.82;;;22.90;99.90;;;;;;5010291;28;20030;-77
2022/08/09 07:24:52;;;;;;;10.80;7.25;;;22.80;99.90;;;;;;5000148;28;20049;-77
2022/08/09 07:27:19;;;;;;;9.13;6.45;;;22.80;99.90;;;;;;5008750;28;20057;-78
2022/08/09 07:29:45;;;;;;;10.45;6.47;;;23.00;99.90;;;;;;5011156;28;20022;-78
2022/08/09 07:32:11;;;;;;;13.13;7.10;;;23.10;99.90;;;;;;5010215;28;20041;-77
2022/08/09 07:34:37;;;;;;;9.50;6.55;;;23.30;99.90;;;;;;5010870;28;20064;-78
2022/08/09 07:37:02;;;;;;;10.85;6.53;;;23.70;99.90;;;;;;5011109;28;20091;-72
2022/08/09 07:39:28;;;;;;;11.98;6.57;;;23.70;99.90;;;;;;5011227;28;20049;-78
2022/08/09 07:41:54;;;;;;;10.40;6.45;;;23.90;99.90;;;;;;5013604;28;20071;-78
2022/08/09 07:44:20;;;;;;;11.38;6.55;;;23.90;99.90;;;;;;5008567;28;20139;-78
2022/08/09 07:46:46;;;;;;;13.63;7.15;;;23.70;99.90;;;;;;5003770;28;20049;-78
2022/08/09 07:49:12;;;;;;;11.23;6.70;;;23.50;99.90;;;;;;5007501;28;20018;-78
2022/08/09 07:51:38;;;;;;;11.65;7.10;;;23.50;99.90;;;;;;4997728;28;20033;-78
2022/08/09 07:54:04;;;;;;;12.90;7.10;;;23.70;99.90;;;;;;5011012;28;20034;-78
2022/08/09 07:56:32;;;;;;;10.85;7.28;;;23.90;99.90;;;;;;5010706;28;20026;-78
2022/08/09 07:58:58;;;;;;;9.55;6.60;;;23.80;99.90;;;;;;5010686;28;20109;-78
2022/08/09 08:01:24;;;;;;;12.65;7.70;;;24.00;99.90;;;;;;5001064;28;20033;-77
2022/08/09 08:03:50;;;;;;;10.10;6.72;;;24.50;99.90;;;;;;5010643;28;20030;-78
2022/08/09 08:06:16;;;;;;;10.82;6.55;;;25.00;99.90;;;;;;5006604;28;20609;-74
2022/08/09 08:08:41;;;;;;;10.07;7.05;;;25.20;99.90;;;;;;5005425;28;20038;-77
2022/08/09 08:11:07;;;;;;;11.20;6.55;;;25.20;99.90;;;;;;5004561;28;20018;-78
2022/08/09 08:13:33;;;;;;;10.70;6.80;;;25.40;99.90;;;;;;5010500;28;20061;-77
2022/08/09 08:15:59;;;;;;;11.25;7.30;;;25.30;99.90;;;;;;5010760;28;20449;-78
2022/08/09 08:18:25;;;;;;;11.43;7.05;;;25.20;99.90;;;;;;5010961;28;20070;-77
2022/08/09 08:20:50;;;;;;;12.23;7.32;;;25.20;99.90;;;;;;5012942;28;20496;-78
2022/08/09 08:23:17;;;;;;;9.63;6.82;;;25.20;99.90;;;;;;5014254;28;20056;-78
2022/08/09 08:25:45;;;;;;;12.27;7.93;;;25.50;99.90;;;;;;5014500;28;20033;-78
2022/08/09 08:28:11;;;;;;;10.88;7.30;;;25.20;99.90;;;;;;5015169;28;20120;-77
2022/08/09 08:30:37;;;;;;;12.35;7.38;;;25.10;99.90;;;;;;5029484;28;20669;-77
2022/08/09 08:33:02;;;;;;;9.55;6.78;;;24.90;99.90;;;;;;5018910;28;20065;-78
2022/08/09 08:35:28;;;;;;;11.18;7.05;;;24.80;99.90;;;;;;5009217;28;20053;-77
2022/08/09 08:37:55;;;;;;;11.50;7.13;;;24.80;99.90;;;;;;5014106;28;20026;-77
2022/08/09 08:40:21;;;;;;;12.35;7.15;;;24.80;99.90;;;;;;5014221;28;20041;-78
2022/08/09 08:42:47;;;;;;;10.70;6.88;;;24.90;99.90;;;;;;4999041;28;20160;-72
2022/08/09 08:45:15;;;;;;;12.10;6.93;;;25.00;99.90;;;;;;5004259;28;20053;-78
2022/08/09 08:47:43;;;;;;;13.15;6.88;;;25.20;99.90;;;;;;5013786;28;20411;-77
2022/08/09 08:50:14;;;;;;;11.05;7.38;;;25.30;99.90;;;;;;5012748;28;20084;-76
2022/08/09 08:52:40;;;;;;;8.88;6.15;;;25.60;99.90;;;;;;5003436;28;20070;-77
2022/08/09 08:55:07;;;;;;;10.65;7.05;;;25.80;99.90;;;;;;5011303;28;20542;-75
2022/08/09 08:57:33;;;;;;;9.45;6.55;;;26.00;99.90;;;;;;5008434;28;20483;-78
2022/08/09 08:59:59;;;;;;;11.38;7.60;;;25.90;99.90;;;;;;5014479;28;20033;-77
2022/08/09 09:02:27;;;;;;;10.57;7.60;;;26.30;99.90;;;;;;5010328;28;20057;-76
2022/08/09 09:04:55;;;;;;;9.10;5.90;;;26.20;99.90;;;;;;5019056;28;20059;-76
2022/08/09 09:07:23;;;;;;;12.00;7.32;;;26.60;99.90;;;;;;5014856;28;20076;-78
2022/08/09 09:09:51;;;;;;;12.35;7.22;;;26.60;99.90;;;;;;5014064;28;20021;-77
2022/08/09 09:12:20;;;;;;;10.00;6.47;;;26.50;99.90;;;;;;5003571;28;20048;-77
2022/08/09 09:14:47;;;;;;;17.27;7.22;;;26.40;99.90;;;;;;5023861;28;20398;-76
2022/08/09 09:17:14;;;;;;;10.90;6.53;;;26.70;99.90;;;;;;5012684;28;20074;-78
2022/08/09 09:19:41;;;;;;;9.90;6.25;;;26.50;99.90;;;;;;5007118;28;20498;-76
2022/08/09 09:22:15;;;;;;;9.23;6.05;;;26.90;99.90;;;;;;5011374;28;20044;-77
2022/08/09 09:24:47;;;;;;;10.32;6.65;;;27.00;99.90;;;;;;5012914;28;20022;-77
2022/08/09 09:27:17;;;;;;;11.05;6.80;;;26.90;99.90;;;;;;5015074;28;20104;-77
2022/08/09 09:29:44;;;;;;;9.05;6.25;;;27.00;99.90;;;;;;5036809;28;20037;-77
2022/08/09 09:32:10;;;;;;;13.82;6.18;;;26.40;99.90;;;;;;5010008;28;20072;-76
2022/08/09 09:34:37;;;;;;;9.25;6.20;;;26.80;99.90;;;;;;5011745;28;20022;-78
2022/08/09 09:37:05;;;;;;;13.43;7.35;;;26.60;99.90;;;;;;5013348;28;20506;-77
2022/08/09 09:39:32;;;;;;;9.23;6.22;;;26.40;99.90;;;;;;5013900;28;21150;-75
2022/08/09 09:41:58;;;;;;;9.95;6.40;;;26.50;99.90;;;;;;4974125;28;20043;-74
2022/08/09 09:44:32;;;;;;;11.52;7.30;;;26.50;99.90;;;;;;4957605;28;21877;-78
2022/08/09 09:47:10;;;;;;;9.20;6.72;;;26.30;99.90;;;;;;4949050;28;20039;-76
2022/08/09 09:49:38;;;;;;;8.98;6.68;;;26.60;99.90;;;;;;4953727;28;20118;-76
2022/08/09 09:52:10;;;;;;;9.57;6.32;;;26.50;99.90;;;;;;4954265;28;20020;-78
2022/08/09 09:54:42;;;;;;;;;;;26.50;99.90;;;;;;4954778;28;20763;-78
2022/08/09 09:57:18;;;;;;;11.05;7.05;;;26.40;99.90;;;;;;4954521;28;20730;-77
2022/08/09 09:59:46;;;;;;;11.27;7.43;;;26.30;99.90;;;;;;4954303;28;20031;-78
2022/08/09 10:02:13;;;;;;;9.07;6.72;;;26.50;99.90;;;;;;4954427;28;20058;-77
2022/08/09 10:04:40;;;;;;;12.98;8.00;;;26.60;99.90;;;;;;4953570;28;20481;-77
2022/08/09 10:07:24;;;;;;;11.50;7.53;;;26.60;99.90;;;;;;4954373;28;20082;-77
2022/08/09 10:09:54;;;;;;;11.05;7.80;;;26.90;99.90;;;;;;4953261;28;20649;-73
2022/08/09 10:12:35;;;;;;;12.43;8.15;;;26.90;99.90;;;;;;4940813;29;20023;-77
2022/08/09 10:15:09;;;;;;;11.88;8.32;;;26.60;99.90;;;;;;4954023;28;20023;-77
2022/08/09 10:17:35;;;;;;;10.82;7.63;;;26.50;99.90;;;;;;4954621;28;20078;-77
2022/08/09 10:20:21;;;;;;;10.60;7.68;;;27.10;99.90;;;;;;4954395;28;20033;-75
2022/08/09 10:22:49;;;;;;;13.45;8.30;;;;;;;;;;4953618;28;20027;-77
2022/08/09 10:25:16;;;;;;;15.23;8.07;;;27.60;99.90;;;;;;4953531;29;20504;-77
2022/08/09 10:27:43;;;;;;;13.40;8.50;;;27.30;99.90;;;;;;4954243;28;20068;-79
2022/08/09 10:30:10;;;;;;;13.10;8.27;;;27.10;99.90;;;;;;4954435;28;20027;-78
2022/08/09 10:32:36;;;;;;;12.98;8.20;;;26.90;99.90;;;;;;4954836;28;20110;-78
2022/08/09 10:35:02;;;;;;;12.30;7.97;;;26.60;99.90;;;;;;4953959;28;20407;-79
2022/08/09 10:37:28;;;;;;;13.10;8.13;;;26.60;99.90;;;;;;4953005;28;20031;-78
2022/08/09 10:39:54;;;;;;;12.77;8.30;;;26.70;99.90;;;;;;4954716;28;20066;-77
2022/08/09 10:42:21;;;;;;;11.48;7.53;;;26.50;99.90;;;;;;4955545;28;20433;-77
2022/08/09 10:44:58;;;;;;;12.50;8.43;;;26.50;99.90;;;;;;4953408;28;20051;-78
2022/08/09 10:47:39;;;;;;;13.10;8.30;;;26.40;99.90;;;;;;4955931;28;20135;-79
2022/08/09 10:50:23;;;;;;;11.80;7.65;;;26.20;99.90;;;;;;4954175;28;20038;-79
2022/08/09 10:53:06;;;;;;;12.20;7.45;;;26.30;99.90;;;;;;4953915;28;20027;-77
2022/08/09 10:55:34;;;;;;;13.05;7.57;;;26.50;99.90;;;;;;4953895;28;20039;-78
2022/08/09 10:58:00;;;;;;;9.75;7.15;;;26.60;99.90;;;;;;4954170;28;20130;-79
2022/08/09 11:00:28;;;;;;;12.77;8.38;;;26.70;99.90;;;;;;4954328;28;20114;-78
2022/08/09 11:02:55;;;;;;;11.70;6.57;;;27.20;99.90;;;;;;4953715;28;20019;-78
2022/08/09 11:05:22;;;;;;;11.63;6.95;;;27.30;99.90;;;;;;4953493;28;20039;-79
2022/08/09 11:07:49;;;;;;;12.73;8.25;;;27.20;99.90;;;;;;4952860;28;20063;-79
2022/08/09 11:10:36;;;;;;;9.60;7.22;;;27.10;99.90;;;;;;4953082;28;20047;-79
2022/08/09 11:13:22;;;;;;;9.27;6.18;;;27.70;99.90;;;;;;4953366;28;20027;-79
2022/08/09 11:15:51;;;;;;;13.60;7.15;;;;;;;;;;4953635;28;20039;-80
2022/08/09 11:18:44;;;;;;;10.82;6.88;;;28.20;99.90;;;;;;4954856;29;20023;-78
2022/08/09 11:21:53;;;;;;;10.10;6.63;;;26.70;99.90;;;;;;4952469;28;20043;-78
2022/08/09 11:24:20;;;;;;;10.55;7.30;;;26.60;99.90;;;;;;4952515;28;20051;-63
2022/08/09 11:26:49;;;;;;;13.45;7.95;;;26.60;99.90;;;;;;4952765;28;20592;-64
2022/08/09 11:29:53;;;;;;;13.35;7.40;;;26.90;99.90;;;;;;4941278;28;20031;-64
2022/08/09 11:32:42;;;;;;;10.55;6.80;;;26.90;99.90;;;;;;4946644;28;20027;-64
2022/08/09 11:35:18;;;;;;;12.32;7.35;;;26.90;99.90;;;;;;4953165;28;20031;-76
2022/08/09 11:37:47;;;;;;;10.65;6.22;;;26.90;99.90;;;;;;4953130;28;20199;-63
2022/08/09 11:40:30;;;;;;;12.00;7.72;;;27.10;99.90;;;;;;4953224;28;20023;-63
2022/08/09 11:42:59;;;;;;;11.07;7.28;;;26.80;99.90;;;;;;4953228;28;20090;-63
2022/08/09 11:45:37;;;;;;;11.27;7.47;;;26.90;99.90;;;;;;4953334;28;20044;-66
2022/08/09 11:48:26;;;;;;;12.00;7.68;;;26.70;99.90;;;;;;4953020;28;20394;-63
2022/08/09 11:50:57;;;;;;;11.35;7.15;;;26.80;99.90;;;;;;4953113;28;20035;-63
2022/08/09 11:53:25;;;;;;;15.43;7.57;;;26.60;99.90;;;;;;4953406;28;20031;-78
2022/08/09 11:55:54;;;;;;;13.23;7.97;;;26.50;99.90;;;;;;4954882;28;20031;-76
2022/08/09 11:58:20;;;;;;;10.88;7.40;;;;;;;;;;4956708;28;20035;-74
2022/08/09 12:00:52;;;;;;;26.65;8.55;;;26.20;99.90;;;;;;4956314;29;20482;-77
2022/08/09 12:03:20;;;;;;;10.93;7.70;;;26.20;99.90;;;;;;4944076;29;20031;-75
2022/08/09 12:05:47;;;;;;;12.95;8.10;;;26.10;99.90;;;;;;4956496;28;20106;-75
2022/08/09 12:08:15;;;;;;;11.48;7.30;;;26.20;99.90;;;;;;4956585;28;20458;-75
2022/08/09 12:10:53;;;;;;;13.32;8.30;;;26.30;99.90;;;;;;4957410;28;20023;-79
2022/08/09 12:13:39;;;;;;;10.25;6.63;;;26.30;99.90;;;;;;4957072;28;20231;-78
2022/08/09 12:16:08;;;;;;;11.88;7.72;;;26.40;99.90;;;;;;4956266;29;20371;-79
2022/08/09 12:18:35;;;;;;;13.50;8.10;;;26.70;99.90;;;;;;4956429;28;20019;-78
2022/08/09 12:21:04;;;;;;;11.75;7.50;;;26.60;99.90;;;;;;4956766;29;20420;-75
2022/08/09 12:23:40;;;;;;;13.38;7.68;;;26.70;99.90;;;;;;4956332;28;20023;-78
2022/08/09 12:26:06;;;;;;;11.48;6.72;;;26.70;99.90;;;;;;4955819;28;20500;-76
2022/08/09 12:28:33;;;;;;;14.27;7.57;;;26.50;99.90;;;;;;4956274;28;20023;-77
2022/08/09 12:31:00;;;;;;;11.27;7.93;;;26.50;99.90;;;;;;4954978;28;20035;-77
2022/08/09 12:33:26;;;;;;;12.13;7.72;;;26.20;99.90;;;;;;4955701;28;20027;-78
2022/08/09 12:36:03;;;;;;;9.20;6.38;;;26.00;99.90;;;;;;4955506;28;20525;-78
2022/08/09 12:38:30;;;;;;;16.20;7.35;;;26.40;99.90;;;;;;4955557;28;20038;-74
2022/08/09 12:40:58;;;;;;;9.30;6.53;;;26.40;99.90;;;;;;4955281;28;20023;-78
2022/08/09 12:43:27;;;;;;;11.05;7.55;;;26.50;99.90;;;;;;4955701;28;20073;-77
2022/08/09 12:45:55;;;;;;;10.32;7.07;;;26.30;99.90;;;;;;4955813;28;20031;-79